Time;durP1;ratioP1;P1;durP2;ratioP2;P2;SDS_P1;SDS_P2;PMS_P1;PMS_P2;Temp;Humidity;BMP_temperature;BMP_pressure;BME280_temperature;BME280_humidity;BME280_pressure;Samples;Min_cycle;Max_cycle;Signal;HPM_P1;HPM_P2
2022/07/08 00:00:33;;;;;;;5.60;4.13;;;;;;;12.66;89.58;96977.59;2032388;29;20052;-45
2022/07/08 00:01:34;;;;;;;4.13;3.67;;;;;;;12.64;88.79;96967.22;2032274;29;20422;-45
2022/07/08 00:02:35;;;;;;;3.95;3.30;;;;;;;12.68;88.43;96976.63;2024276;29;20530;-45
2022/07/08 00:03:36;;;;;;;6.05;3.67;;;;;;;12.65;88.65;96968.91;2017403;29;20053;-45
2022/07/08 00:04:38;;;;;;;4.82;2.92;;;;;;;12.67;88.38;96967.09;2016672;29;20092;-46
2022/07/08 00:05:39;;;;;;;5.40;3.20;;;;;;;12.67;88.71;96979.25;2016982;29;20131;-45
2022/07/08 00:06:40;;;;;;;4.40;3.63;;;;;;;12.69;88.63;96975.69;2002510;29;20056;-46
2022/07/08 00:07:41;;;;;;;6.15;3.50;;;;;;;12.68;88.93;96970.56;2009588;29;20052;-48
2022/07/08 00:08:44;;;;;;;5.15;3.45;;;;;;;12.69;89.01;96969.63;2024759;29;20502;-45
2022/07/08 00:09:45;;;;;;;5.32;3.45;;;;;;;12.69;89.09;96970.47;2017153;29;20061;-46
2022/07/08 00:10:46;;;;;;;5.70;3.60;;;;;;;12.63;89.76;96969.88;2017633;29;20079;-45
2022/07/08 00:11:48;;;;;;;7.10;3.10;;;;;;;12.65;89.63;96966.31;2032384;29;20063;-48
2022/07/08 00:12:49;;;;;;;5.68;3.55;;;;;;;12.70;88.37;96976.56;2032781;29;20051;-45
2022/07/08 00:13:50;;;;;;;6.80;3.28;;;;;;;12.71;88.25;96970.44;2024900;29;20063;-46
2022/07/08 00:14:51;;;;;;;5.55;3.10;;;;;;;12.67;88.00;96974.06;2032273;29;20048;-46
2022/07/08 00:15:52;;;;;;;5.10;3.20;;;;;;;12.70;88.56;96971.34;2024858;29;20048;-45
2022/07/08 00:16:54;;;;;;;5.68;3.03;;;;;;;12.68;88.40;96971.41;2032627;29;20058;-44
2022/07/08 00:17:55;;;;;;;6.15;3.60;;;;;;;12.70;88.76;96966.16;2032341;29;20130;-45
2022/07/08 00:18:56;;;;;;;4.45;3.55;;;;;;;12.68;88.06;96974.00;2032643;29;20048;-45
2022/07/08 00:19:57;;;;;;;4.45;3.05;;;;;;;12.66;88.66;96970.59;2023994;29;20102;-44
2022/07/08 00:20:59;;;;;;;5.88;3.40;;;;;;;12.69;88.36;96967.03;2024537;29;20056;-45
2022/07/08 00:22:00;;;;;;;6.10;3.20;;;;;;;12.68;89.32;96971.41;2031638;29;20081;-45
2022/07/08 00:23:01;;;;;;;4.30;3.60;;;;;;;12.68;89.00;96970.56;2032593;29;20044;-44
2022/07/08 00:24:03;;;;;;;4.43;3.30;;;;;;;12.65;88.81;96968.09;2032569;29;20055;-45
2022/07/08 00:25:04;;;;;;;5.60;3.30;;;;;;;12.66;88.38;96970.59;2039734;29;20592;-48
2022/07/08 00:26:06;;;;;;;5.20;3.45;;;;;;;12.65;88.72;96973.28;2039671;29;20059;-45
2022/07/08 00:27:07;;;;;;;5.93;3.60;;;;;;;12.65;89.14;96963.72;2025024;29;20538;-45
2022/07/08 00:28:08;;;;;;;6.05;3.95;;;;;;;12.63;89.54;96965.53;2016770;29;20056;-45
2022/07/08 00:29:09;;;;;;;8.70;3.83;;;;;;;12.63;88.86;96968.13;2017144;29;20060;-45
2022/07/08 00:30:12;;;;;;;4.40;3.22;;;;;;;12.58;89.71;96964.84;2024021;29;20060;-48
2022/07/08 00:31:13;;;;;;;7.95;4.13;;;;;;;12.57;89.93;96964.00;2032374;29;20047;-45
2022/07/08 00:32:14;;;;;;;6.47;3.97;;;;;;;12.60;89.99;96970.00;2031881;29;20044;-46
2022/07/08 00:33:15;;;;;;;6.15;3.53;;;;;;;12.60;88.78;96967.41;2032446;29;20048;-45
2022/07/08 00:34:17;;;;;;;4.22;3.50;;;;;;;12.61;89.84;96966.50;2040298;29;20090;-47
2022/07/08 00:35:18;;;;;;;7.55;3.38;;;;;;;12.60;88.79;96968.25;2031579;29;20056;-46
2022/07/08 00:36:19;;;;;;;6.43;3.70;;;;;;;12.57;89.60;96973.59;2032548;29;20075;-46
2022/07/08 00:37:21;;;;;;;5.90;3.15;;;;;;;12.53;90.36;96964.19;2032226;29;20062;-48
2022/07/08 00:38:22;;;;;;;4.55;3.42;;;;;;;12.56;90.15;96966.66;2024622;29;20052;-45
2022/07/08 00:39:23;;;;;;;5.57;3.60;;;;;;;12.58;89.73;96973.50;2016743;29;20076;-45
2022/07/08 00:40:24;;;;;;;4.25;3.05;;;;;;;12.56;90.02;96970.16;2017054;29;20056;-46
2022/07/08 00:41:26;;;;;;;6.75;3.92;;;;;;;12.54;89.63;96965.91;2017073;29;20499;-45
2022/07/08 00:42:27;;;;;;;5.20;3.40;;;;;;;12.54;90.07;96969.34;2024399;29;20585;-47
2022/07/08 00:43:44;;;;;;;8.27;3.67;;;;;;;12.58;89.05;96968.31;2016963;29;20052;-44
2022/07/08 00:44:46;;;;;;;5.53;3.78;;;;;;;12.54;90.69;96969.34;2021246;29;20045;-46
2022/07/08 00:45:47;;;;;;;7.30;3.80;;;;;;;12.53;91.34;96966.78;2024208;29;20573;-45
2022/07/08 00:46:48;;;;;;;6.57;4.20;;;;;;;12.55;89.97;96967.59;2009885;29;20447;-46
2022/07/08 00:47:49;;;;;;;6.63;3.40;;;;;;;12.53;89.59;96965.03;2001872;29;20054;-46
2022/07/08 00:48:50;;;;;;;7.30;3.70;;;;;;;12.52;90.00;96965.94;2017002;29;20060;-46
2022/07/08 00:49:52;;;;;;;6.05;3.50;;;;;;;12.55;89.46;96968.44;2015964;29;20057;-46
2022/07/08 00:50:53;;;;;;;4.90;3.58;;;;;;;12.50;89.98;96965.16;2016942;29;20507;-45
2022/07/08 00:51:54;;;;;;;7.03;3.38;;;;;;;12.53;90.20;96964.19;2016338;29;20072;-46
2022/07/08 00:52:57;;;;;;;4.75;3.38;;;;;;;12.54;89.78;96973.72;2024645;29;20053;-46
2022/07/08 00:53:58;;;;;;;6.68;3.67;;;;;;;12.56;90.81;96972.75;2024588;29;20060;-45
2022/07/08 00:54:59;;;;;;;5.57;3.90;;;;;;;12.55;90.37;96972.78;2016299;29;20060;-45
2022/07/08 00:56:00;;;;;;;5.10;4.28;;;;;;;12.47;90.33;96970.50;2024404;29;20055;-45
2022/07/08 00:57:02;;;;;;;6.38;3.47;;;;;;;12.52;89.46;96968.56;2017212;29;20121;-48
2022/07/08 00:58:03;;;;;;;9.45;4.00;;;;;;;12.53;90.42;96972.00;2016313;29;20048;-45
2022/07/08 00:59:05;;;;;;;5.03;3.70;;;;;;;12.56;89.69;96975.34;2024537;29;20060;-45
2022/07/08 01:00:07;;;;;;;7.10;3.83;;;;;;;12.57;89.15;96971.81;2016464;29;20049;-45
2022/07/08 01:01:08;;;;;;;7.00;3.75;;;;;;;12.54;89.55;96968.50;2024734;29;20057;-47
2022/07/08 01:02:09;;;;;;;7.75;4.00;;;;;;;12.59;88.94;96974.38;2031986;29;20437;-45
2022/07/08 01:03:10;;;;;;;6.32;3.83;;;;;;;12.56;90.20;96970.16;2017254;29;20116;-46
2022/07/08 01:04:11;;;;;;;6.72;4.43;;;;;;;12.60;89.46;96975.22;2017076;29;20045;-44
2022/07/08 01:05:13;;;;;;;7.63;3.90;;;;;;;12.62;89.24;96970.81;2024338;29;20071;-46
2022/07/08 01:06:14;;;;;;;6.15;3.47;;;;;;;12.61;89.01;96972.53;2024558;29;20055;-44
2022/07/08 01:07:15;;;;;;;6.55;4.05;;;;;;;12.61;88.48;96971.69;2024910;29;20075;-45
2022/07/08 01:08:16;;;;;;;5.72;3.75;;;;;;;12.59;89.20;96974.38;2024028;29;20044;-47
2022/07/08 01:09:17;;;;;;;5.05;3.50;;;;;;;12.60;89.16;96973.47;2017085;29;20056;-45
2022/07/08 01:10:19;;;;;;;6.68;3.97;;;;;;;12.64;88.65;96971.56;2008859;29;20045;-46
2022/07/08 01:11:20;;;;;;;4.45;3.38;;;;;;;12.67;88.67;96972.31;2016934;29;20049;-45
2022/07/08 01:12:21;;;;;;;5.32;3.63;;;;;;;12.67;88.72;96968.84;2016335;29;20613;-45
2022/07/08 01:13:24;;;;;;;6.10;3.95;;;;;;;12.68;88.85;96967.94;2024549;29;20506;-48
2022/07/08 01:14:25;;;;;;;5.30;3.13;;;;;;;12.62;88.42;96969.06;2024341;29;20056;-44
2022/07/08 01:15:26;;;;;;;6.32;3.53;;;;;;;12.66;89.36;96974.97;2016530;29;20045;-43
2022/07/08 01:16:31;;;;;;;6.88;3.28;;;;;;;12.68;88.90;96971.41;2024154;29;20060;-45
2022/07/08 01:17:42;;;;;;;5.22;3.70;;;;;;;12.69;87.86;96967.03;2024582;29;20662;-47
2022/07/08 01:18:43;;;;;;;5.30;2.95;;;;;;;12.67;87.64;96969.72;2032190;29;20048;-46
2022/07/08 01:19:44;;;;;;;5.25;3.70;;;;;;;12.68;88.44;96974.00;2032300;29;20058;-45
2022/07/08 01:20:45;;;;;;;4.28;3.35;;;;;;;12.68;88.63;96974.00;2024134;29;20060;-44
2022/07/08 01:21:47;;;;;;;6.88;4.07;;;;;;;12.68;87.85;96970.56;2024165;29;20048;-44
2022/07/08 01:22:48;;;;;;;6.25;3.83;;;;;;;12.67;87.67;96974.94;2016551;29;20114;-45
2022/07/08 01:23:49;;;;;;;5.03;3.55;;;;;;;12.65;88.71;96968.91;2009357;29;20056;-45
2022/07/08 01:24:50;;;;;;;6.40;3.72;;;;;;;12.63;88.35;96969.88;2024025;29;20530;-45
2022/07/08 01:25:52;;;;;;;5.82;3.65;;;;;;;12.65;88.71;96966.31;2019833;29;20044;-45
2022/07/08 01:26:54;;;;;;;5.80;3.30;;;;;;;12.68;87.92;96966.19;2024455;29;20064;-48
2022/07/08 01:27:55;;;;;;;6.53;3.70;;;;;;;12.71;87.79;96970.44;2024454;29;20056;-46
2022/07/08 01:28:57;;;;;;;5.47;3.90;;;;;;;12.69;87.42;96970.47;2016507;29;20061;-45
2022/07/08 01:29:58;;;;;;;4.85;3.30;;;;;;;12.68;88.02;96970.56;2016787;29;20049;-45
2022/07/08 01:30:59;;;;;;;6.13;3.65;;;;;;;12.71;87.65;96975.66;2009129;29;20054;-47
2022/07/08 01:32:01;;;;;;;3.55;3.22;;;;;;;12.66;88.62;96972.38;2009024;29;20046;-46
2022/07/08 01:33:02;;;;;;;7.68;3.15;;;;;;;12.70;88.63;96977.41;2024851;29;20063;-45
2022/07/08 01:34:03;;;;;;;5.40;3.33;;;;;;;12.71;88.13;96975.66;2032327;29;20402;-48
2022/07/08 01:35:05;;;;;;;5.47;3.78;;;;;;;12.74;88.12;96980.72;2032006;29;20599;-45
2022/07/08 01:36:07;;;;;;;5.85;3.80;;;;;;;12.71;87.92;96975.66;2024088;29;20060;-44
2022/07/08 01:37:08;;;;;;;5.22;3.67;;;;;;;12.72;88.04;96980.81;2017064;29;20064;-45
2022/07/08 01:38:09;;;;;;;4.22;3.03;;;;;;;12.74;87.53;96983.34;2024045;29;20040;-44
2022/07/08 01:39:10;;;;;;;7.53;3.83;;;;;;;12.75;88.34;96987.63;2024369;29;20556;-45
2022/07/08 01:40:12;;;;;;;5.82;3.92;;;;;;;12.76;87.34;96986.75;2032201;29;20064;-48
2022/07/08 01:41:13;;;;;;;6.95;3.70;;;;;;;12.74;88.13;96989.38;2040078;29;20407;-45
2022/07/08 01:42:14;;;;;;;5.03;3.58;;;;;;;12.71;87.56;96993.88;2016100;29;20203;-43
2022/07/08 01:43:15;;;;;;;3.60;3.10;;;;;;;12.70;87.19;96992.19;2016186;29;20049;-45
2022/07/08 01:44:16;;;;;;;5.38;3.60;;;;;;;12.65;87.47;96994.13;2032354;29;20048;-45
2022/07/08 01:45:18;;;;;;;8.00;3.92;;;;;;;12.71;87.50;96993.88;2032348;29;20043;-46
2022/07/08 01:46:19;;;;;;;7.55;3.30;;;;;;;12.75;87.76;97003.25;2031534;29;20410;-44
2022/07/08 01:47:20;;;;;;;4.68;3.42;;;;;;;12.76;88.55;97008.44;2024453;29;20060;-44
2022/07/08 01:48:22;;;;;;;5.78;3.85;;;;;;;12.85;88.50;97009.81;2031710;29;20047;-44
2022/07/08 01:49:23;;;;;;;3.88;3.30;;;;;;;12.74;87.00;97006.78;2032204;29;20120;-45
2022/07/08 01:50:24;;;;;;;4.35;3.03;;;;;;;12.66;85.83;97001.88;2032352;29;20099;-47
2022/07/08 01:51:26;;;;;;;5.43;2.80;;;;;;;12.57;85.60;97008.31;2024602;29;20056;-44
2022/07/08 01:52:27;;;;;;;5.45;2.33;;;;;;;12.51;83.29;96999.88;2024108;29;20475;-46
2022/07/08 01:53:28;;;;;;;7.18;1.83;;;;;;;12.39;82.46;97003.81;2017191;29;20565;-47
2022/07/08 01:54:29;;;;;;;4.30;1.73;;;;;;;12.27;81.00;97006.88;2024663;29;20032;-45
2022/07/08 01:55:31;;;;;;;7.30;2.25;;;;;;;12.30;80.30;97002.41;2031948;29;20044;-45
2022/07/08 01:56:32;;;;;;;4.85;1.85;;;;;;;12.24;79.87;97001.78;2024584;29;20051;-45
2022/07/08 01:57:34;;;;;;;6.93;2.08;;;;;;;12.19;79.80;97006.31;2025778;29;20048;-45
2022/07/08 01:58:35;;;;;;;5.18;1.40;;;;;;;12.10;80.24;97008.34;2018471;29;20442;-42
2022/07/08 01:59:41;;;;;;;5.28;1.55;;;;;;;12.20;79.43;97013.22;2033436;29;20048;-45
2022/07/08 02:00:42;;;;;;;7.57;1.70;;;;;;;12.13;79.29;97008.25;2040610;29;20710;-44
2022/07/08 02:01:44;;;;;;;5.55;1.65;;;;;;;12.19;79.62;97003.69;2032984;29;20047;-44
2022/07/08 02:02:45;;;;;;;5.85;1.60;;;;;;;12.10;79.02;97010.94;2032617;29;20048;-46
2022/07/08 02:03:46;;;;;;;3.80;1.60;;;;;;;12.16;79.32;97015.06;2033621;29;20540;-47
2022/07/08 02:04:48;;;;;;;9.50;2.00;;;;;;;12.14;80.07;97019.53;2025718;29;20049;-45
2022/07/08 02:05:49;;;;;;;9.25;1.80;;;;;;;12.14;79.20;97025.56;2018144;29;20056;-46
2022/07/08 02:06:50;;;;;;;5.47;1.83;;;;;;;12.10;79.00;97016.16;2026110;29;20470;-44
2022/07/08 02:07:53;;;;;;;4.40;1.60;;;;;;;12.06;79.45;97019.81;2026058;29;20075;-45
2022/07/08 02:08:54;;;;;;;6.65;1.65;;;;;;;12.05;78.98;97025.88;2011123;29;20053;-44
2022/07/08 02:09:56;;;;;;;4.10;1.70;;;;;;;12.06;78.30;97019.81;2018336;29;20084;-44
2022/07/08 02:13:19;;;;;;;7.25;1.95;;;;;;;12.03;76.91;97021.66;2020826;29;20423;-45
2022/07/08 02:14:21;;;;;;;5.47;1.60;;;;;;;12.06;77.93;97022.41;2025986;29;20560;-43
2022/07/08 02:15:22;;;;;;;5.13;2.00;;;;;;;12.07;78.34;97018.03;2033241;29;20056;-43
2022/07/08 02:16:23;;;;;;;8.27;1.98;;;;;;;12.09;78.29;97024.88;2025298;29;20048;-45
2022/07/08 02:17:24;;;;;;;4.20;1.38;;;;;;;12.06;77.18;97025.00;2018177;29;20045;-45
2022/07/08 02:18:25;;;;;;;4.63;2.10;;;;;;;12.06;77.63;97022.41;2017771;29;20542;-46
2022/07/08 02:19:27;;;;;;;8.30;1.90;;;;;;;12.05;77.37;97028.50;2018093;29;20053;-44
2022/07/08 02:20:28;;;;;;;5.07;1.67;;;;;;;12.18;76.22;97022.84;2010580;29;20511;-47
2022/07/08 02:21:29;;;;;;;3.97;1.45;;;;;;;12.13;75.96;97023.00;2033093;29;20044;-44
2022/07/08 02:22:30;;;;;;;5.25;1.95;;;;;;;12.11;76.47;97024.84;2033163;29;20044;-45
2022/07/08 02:23:32;;;;;;;6.15;1.70;;;;;;;12.11;77.43;97030.91;2033296;29;20048;-46
2022/07/08 02:24:33;;;;;;;6.25;1.63;;;;;;;12.10;78.19;97026.56;2025593;29;20582;-44
2022/07/08 02:25:34;;;;;;;7.78;1.80;;;;;;;12.04;78.15;97038.97;2010087;29;20101;-42
2022/07/08 02:26:36;;;;;;;4.90;1.58;;;;;;;12.06;77.85;97026.75;2017964;29;20051;-44
2022/07/08 02:27:37;;;;;;;6.32;1.75;;;;;;;12.05;78.91;97025.06;2025670;29;20040;-43
2022/07/08 02:28:38;;;;;;;5.47;1.80;;;;;;;12.01;79.56;97024.31;2033105;29;20035;-45
2022/07/08 02:29:39;;;;;;;4.35;1.50;;;;;;;12.07;77.93;97028.44;2040350;29;20044;-44
2022/07/08 02:30:40;;;;;;;9.48;1.73;;;;;;;12.08;78.52;97031.00;2025794;29;20502;-44
2022/07/08 02:31:42;;;;;;;3.40;1.58;;;;;;;12.08;78.16;97036.22;2017395;29;20133;-47
2022/07/08 02:32:43;;;;;;;7.35;1.83;;;;;;;12.10;77.81;97037.00;2010940;29;20056;-43
2022/07/08 02:33:45;;;;;;;3.53;1.60;;;;;;;12.09;77.87;97037.06;2025660;29;20056;-43
2022/07/08 02:34:46;;;;;;;5.63;1.83;;;;;;;12.15;77.10;97031.63;2033264;29;20720;-44
2022/07/08 02:35:47;;;;;;;5.13;1.50;;;;;;;12.20;77.14;97039.28;2032888;29;20052;-45
2022/07/08 02:36:48;;;;;;;7.05;1.45;;;;;;;12.18;77.21;97041.91;2025408;29;20055;-45
2022/07/08 02:37:49;;;;;;;7.55;2.45;;;;;;;12.13;77.50;97044.72;2025017;29;20557;-45
2022/07/08 02:38:51;;;;;;;7.93;1.90;;;;;;;12.20;77.28;97049.69;2033044;29;20104;-43
2022/07/08 02:39:52;;;;;;;6.22;2.10;;;;;;;12.15;77.08;97052.44;2032836;29;20060;-43
2022/07/08 02:40:53;;;;;;;7.95;1.60;;;;;;;12.12;77.15;97055.16;2025644;29;20056;-45
2022/07/08 02:41:54;;;;;;;7.32;1.80;;;;;;;12.20;75.95;97053.13;2016866;29;20045;-45
2022/07/08 02:42:56;;;;;;;3.22;1.50;;;;;;;12.25;76.41;97050.38;2017793;29;20099;-44
2022/07/08 02:43:57;;;;;;;5.35;1.60;;;;;;;12.24;77.31;97052.13;2009845;29;20057;-44
2022/07/08 02:44:58;;;;;;;4.13;1.77;;;;;;;12.19;76.70;97051.44;2025380;29;20048;-43
2022/07/08 02:45:59;;;;;;;9.73;1.90;;;;;;;12.25;76.82;97055.56;2025371;29;20048;-43
2022/07/08 02:47:00;;;;;;;9.30;1.83;;;;;;;12.25;76.92;97052.97;2032767;29;20063;-42
2022/07/08 02:48:02;;;;;;;8.32;2.10;;;;;;;12.23;77.61;97053.00;2041228;29;20043;-44
2022/07/08 02:49:03;;;;;;;8.90;1.98;;;;;;;12.21;77.04;97054.81;2025723;29;20553;-46
2022/07/08 02:50:05;;;;;;;5.40;1.73;;;;;;;12.23;77.09;97055.63;2025196;29;20457;-44
2022/07/08 02:51:06;;;;;;;6.97;2.05;;;;;;;12.22;77.15;97058.31;2023327;29;20800;-43
2022/07/08 02:52:07;;;;;;;5.22;1.85;;;;;;;12.21;77.71;97062.63;2017438;29;20045;-46
2022/07/08 02:53:14;;;;;;;4.28;1.30;;;;;;;12.22;76.77;97061.75;2026267;29;20052;-45
2022/07/08 02:54:15;;;;;;;4.95;2.03;;;;;;;12.24;76.50;97059.94;2011792;29;20543;-42
2022/07/08 02:55:16;;;;;;;5.70;1.88;;;;;;;12.27;77.14;97069.38;2017945;29;20167;-38
2022/07/08 02:56:18;;;;;;;7.13;1.90;;;;;;;12.23;76.42;97062.59;2010109;29;20049;-40
2022/07/08 02:57:19;;;;;;;9.43;2.28;;;;;;;12.24;76.42;97067.75;2009860;29;20539;-42
2022/07/08 02:58:20;;;;;;;5.97;2.00;;;;;;;12.24;76.73;97067.75;2017190;29;20068;-41
2022/07/08 02:59:21;;;;;;;8.73;2.47;;;;;;;12.23;76.88;97071.25;2018027;29;20053;-41
2022/07/08 03:00:23;;;;;;;4.57;1.80;;;;;;;12.21;76.78;97069.59;2017493;29;20056;-41
2022/07/08 03:01:24;;;;;;;3.58;1.30;;;;;;;12.20;76.29;97065.31;2025019;29;20075;-39
2022/07/08 03:02:25;;;;;;;4.63;2.03;;;;;;;12.21;77.44;97072.22;2009827;29;20109;-40
2022/07/08 03:03:27;;;;;;;5.75;1.58;;;;;;;12.19;77.51;97084.44;2002460;29;20049;-40
2022/07/08 03:04:28;;;;;;;8.93;2.45;;;;;;;12.14;77.40;97077.66;2002436;29;20049;-40
2022/07/08 03:05:29;;;;;;;7.38;1.80;;;;;;;12.13;77.16;97080.28;2025309;29;20209;-40
2022/07/08 03:06:30;;;;;;;7.22;2.03;;;;;;;12.09;78.14;97078.72;2017311;29;20545;-41
2022/07/08 03:07:32;;;;;;;7.45;2.03;;;;;;;12.10;77.53;97081.25;2017692;29;20056;-41
2022/07/08 03:08:33;;;;;;;6.90;2.15;;;;;;;12.12;76.71;97078.59;2024326;29;20044;-40
2022/07/08 03:09:34;;;;;;;7.38;1.85;;;;;;;12.10;77.23;97076.03;2017841;29;20049;-40
2022/07/08 03:10:35;;;;;;;6.28;2.33;;;;;;;12.10;77.24;97086.47;2009695;29;20053;-39
2022/07/08 03:11:36;;;;;;;7.28;1.83;;;;;;;12.12;76.56;97078.59;2009882;29;20060;-39
2022/07/08 03:12:38;;;;;;;6.55;1.88;;;;;;;12.10;77.08;97081.25;2010101;29;20037;-41
2022/07/08 03:13:39;;;;;;;6.28;2.03;;;;;;;12.05;77.06;97080.56;2017439;29;20045;-40
2022/07/08 03:14:41;;;;;;;7.65;1.95;;;;;;;12.02;77.06;97088.50;2017325;29;20048;-41
2022/07/08 03:15:42;;;;;;;10.88;2.00;;;;;;;11.97;77.17;97079.16;2017698;29;20040;-40
2022/07/08 03:16:43;;;;;;;5.57;2.13;;;;;;;11.98;77.30;97092.13;2024929;29;20116;-41
2022/07/08 03:17:45;;;;;;;9.60;1.83;;;;;;;11.96;76.89;97091.31;2017767;29;20529;-39
2022/07/08 03:18:46;;;;;;;6.70;1.92;;;;;;;11.98;77.78;97092.13;2009615;29;20519;-42
2022/07/08 03:19:47;;;;;;;10.20;1.80;;;;;;;11.95;77.25;97096.56;2009736;29;20072;-40
2022/07/08 03:20:48;;;;;;;7.20;2.20;;;;;;;11.93;77.51;97101.00;2009639;29;20057;-41
2022/07/08 03:21:49;;;;;;;8.00;1.90;;;;;;;11.93;76.96;97099.25;2009889;29;20110;-39
2022/07/08 03:22:51;;;;;;;5.32;1.88;;;;;;;11.88;76.75;97106.34;2017282;29;20051;-40
2022/07/08 03:23:52;;;;;;;8.10;2.30;;;;;;;11.81;77.60;97099.63;2009476;29;20128;-39
2022/07/08 03:24:53;;;;;;;8.68;1.95;;;;;;;11.81;76.39;97100.47;2009962;29;20539;-40
2022/07/08 03:25:54;;;;;;;7.32;1.60;;;;;;;11.81;76.60;97097.84;2017375;29;20047;-40
2022/07/08 03:26:56;;;;;;;6.32;1.63;;;;;;;11.80;76.10;97100.53;2017378;29;20049;-41
2022/07/08 03:27:57;;;;;;;5.50;1.42;;;;;;;11.80;75.68;97100.53;2010045;29;20053;-41
2022/07/08 03:28:58;;;;;;;5.35;1.60;;;;;;;11.87;75.86;97102.06;2009974;29;20613;-40
2022/07/08 03:29:59;;;;;;;5.75;1.77;;;;;;;11.88;76.52;97115.00;2017397;29;20053;-40
2022/07/08 03:31:01;;;;;;;5.95;1.55;;;;;;;11.84;75.99;97116.00;2017730;29;20056;-41
2022/07/08 03:32:02;;;;;;;7.30;1.90;;;;;;;11.81;76.62;97115.25;2009309;29;20072;-40
2022/07/08 03:33:04;;;;;;;8.93;1.63;;;;;;;11.83;76.30;97116.03;2017492;29;20056;-40
2022/07/08 03:34:05;;;;;;;7.55;2.08;;;;;;;11.84;75.73;97116.00;2017400;29;20049;-41
2022/07/08 03:35:07;;;;;;;6.68;1.60;;;;;;;11.82;75.85;97122.16;2017673;29;20105;-40
2022/07/08 03:36:08;;;;;;;5.88;1.60;;;;;;;11.87;76.18;97125.50;2017421;29;20060;-39
2022/07/08 03:37:10;;;;;;;5.75;1.90;;;;;;;11.84;75.65;97123.81;2009903;29;20038;-40
2022/07/08 03:38:11;;;;;;;6.95;1.70;;;;;;;11.85;75.70;97125.50;2017877;29;20049;-42
2022/07/08 03:39:12;;;;;;;7.38;2.00;;;;;;;11.84;75.76;97129.00;2025144;29;20534;-40
2022/07/08 03:41:34;;;;;;;6.63;1.88;;;;;;;11.82;75.58;97124.75;2014740;29;20045;-39
2022/07/08 03:42:36;;;;;;;4.22;1.77;;;;;;;11.77;76.83;97124.06;2017322;29;20047;-37
2022/07/08 03:43:37;;;;;;;5.07;2.13;;;;;;;11.76;75.84;97136.22;2009579;29;20049;-41
2022/07/08 03:44:38;;;;;;;6.20;1.77;;;;;;;11.74;76.21;97130.22;2010017;29;20053;-40
2022/07/08 03:45:39;;;;;;;8.13;2.10;;;;;;;11.76;76.42;97137.97;1994865;29;20057;-41
2022/07/08 03:46:41;;;;;;;8.27;2.30;;;;;;;11.73;75.56;97135.47;1995001;29;20046;-39
2022/07/08 03:47:42;;;;;;;8.63;2.00;;;;;;;11.76;75.55;97135.34;2001336;29;20053;-39
2022/07/08 03:48:43;;;;;;;6.38;1.70;;;;;;;11.81;75.55;97136.91;2002645;29;20046;-41
2022/07/08 03:49:44;;;;;;;6.78;1.90;;;;;;;11.77;74.91;97145.72;2009744;29;20461;-39
2022/07/08 03:50:46;;;;;;;10.48;1.80;;;;;;;11.70;75.20;97139.03;2017072;29;20053;-39
2022/07/08 03:51:47;;;;;;;8.23;2.08;;;;;;;11.73;75.57;97138.06;2009035;29;20056;-40
2022/07/08 03:52:48;;;;;;;8.63;1.80;;;;;;;11.70;75.13;97147.66;2009959;29;20045;-40
2022/07/08 03:53:49;;;;;;;9.55;2.35;;;;;;;11.65;75.87;97144.41;2009062;29;20056;-41
2022/07/08 03:54:51;;;;;;;8.75;2.03;;;;;;;11.67;75.79;97144.34;2002675;29;20538;-40
2022/07/08 03:55:54;;;;;;;8.45;1.88;;;;;;;11.67;75.47;97149.53;2001682;29;20049;-40
2022/07/08 03:56:55;;;;;;;6.15;1.70;;;;;;;11.66;76.12;97153.91;2002024;29;20558;-40
2022/07/08 03:57:57;;;;;;;14.65;2.33;;;;;;;11.67;75.72;97152.97;2017073;29;20048;-40
2022/07/08 03:58:58;;;;;;;11.20;1.98;;;;;;;11.67;75.00;97152.97;2017080;29;20067;-39
2022/07/08 04:00:00;;;;;;;5.03;1.63;;;;;;;11.66;74.99;97160.84;2010007;29;20061;-38
2022/07/08 04:01:01;;;;;;;3.90;1.58;;;;;;;11.62;75.33;97162.69;2001826;29;20050;-41
2022/07/08 04:02:03;;;;;;;8.05;1.48;;;;;;;11.65;75.52;97151.31;1995032;29;20059;-40
2022/07/08 04:03:04;;;;;;;5.18;1.58;;;;;;;11.66;75.07;97155.66;2017157;29;20061;-41
2022/07/08 04:04:05;;;;;;;11.95;2.47;;;;;;;11.75;75.04;97151.88;2017095;29;20056;-39
2022/07/08 04:05:07;;;;;;;7.32;1.88;;;;;;;11.73;75.49;97161.50;2009326;29;20060;-40
2022/07/08 04:06:08;;;;;;;6.80;1.73;;;;;;;11.80;74.70;97156.03;2002527;29;20803;-40
2022/07/08 04:07:09;;;;;;;7.63;1.80;;;;;;;11.77;74.91;97160.50;2001960;29;20054;-41
2022/07/08 04:08:10;;;;;;;9.38;2.03;;;;;;;11.74;75.29;97155.41;2009981;29;20097;-40
2022/07/08 04:09:12;;;;;;;8.77;1.58;;;;;;;11.83;74.86;97161.13;2009112;29;20049;-41
2022/07/08 04:10:13;;;;;;;11.40;2.20;;;;;;;11.84;75.38;97157.66;2001780;29;20049;-40
2022/07/08 04:11:14;;;;;;;7.00;1.95;;;;;;;11.87;74.19;97162.78;2002581;29;20058;-40
2022/07/08 04:12:16;;;;;;;10.40;1.80;;;;;;;11.81;74.65;97154.28;2001735;29;20053;-41
2022/07/08 04:13:17;;;;;;;6.05;2.00;;;;;;;11.82;74.99;97158.59;2009649;29;20049;-39
2022/07/08 04:14:18;;;;;;;8.32;2.08;;;;;;;11.77;75.47;97153.53;2016969;29;20075;-40
2022/07/08 04:15:20;;;;;;;5.80;1.90;;;;;;;11.76;75.01;97158.78;2025329;29;20052;-40
2022/07/08 04:16:21;;;;;;;12.13;2.47;;;;;;;11.83;75.46;97160.28;2026112;29;20052;-40
2022/07/08 04:17:22;;;;;;;5.25;1.75;;;;;;;11.92;74.78;97162.59;2024684;29;20044;-40
2022/07/08 04:18:25;;;;;;;6.63;2.17;;;;;;;11.93;74.11;97156.50;2025030;29;20052;-39
2022/07/08 04:19:26;;;;;;;6.63;1.88;;;;;;;11.97;74.07;97158.09;2024614;29;20044;-40
2022/07/08 04:20:28;;;;;;;6.35;1.85;;;;;;;11.94;75.02;97163.41;2016808;29;20041;-40
2022/07/08 04:21:29;;;;;;;11.57;2.17;;;;;;;11.92;74.63;97165.19;2017327;29;20045;-41
2022/07/08 04:22:30;;;;;;;13.40;2.03;;;;;;;12.06;74.11;97162.16;2017111;29;20044;-38
2022/07/08 04:23:31;;;;;;;8.38;2.25;;;;;;;12.05;73.89;97168.25;2009302;29;20423;-40
2022/07/08 04:24:33;;;;;;;10.45;2.25;;;;;;;12.01;74.18;97170.09;2017321;29;20045;-39
2022/07/08 04:25:34;;;;;;;5.38;1.67;;;;;;;12.00;73.85;97164.94;2018148;29;20029;-41
2022/07/08 04:26:35;;;;;;;5.25;1.73;;;;;;;12.05;74.39;97161.28;2016911;29;20052;-41
2022/07/08 04:27:36;;;;;;;9.73;2.53;;;;;;;11.98;74.88;97165.00;2024735;29;20052;-39
2022/07/08 04:28:37;;;;;;;8.10;2.47;;;;;;;12.06;74.11;97162.16;2024633;29;20047;-40
2022/07/08 04:29:39;;;;;;;7.00;2.22;;;;;;;12.04;73.89;97164.78;2009605;29;20049;-39
2022/07/08 04:30:40;;;;;;;8.82;2.00;;;;;;;11.94;74.93;97176.41;2002115;29;20516;-39
2022/07/08 04:31:41;;;;;;;9.13;2.03;;;;;;;11.91;74.55;97168.72;2009316;29;20041;-39
2022/07/08 04:32:42;;;;;;;7.40;2.08;;;;;;;11.93;75.04;97166.06;2016690;29;20041;-41
2022/07/08 04:33:44;;;;;;;8.85;2.05;;;;;;;11.83;75.77;97171.53;2016403;29;20056;-41
2022/07/08 04:34:45;;;;;;;8.20;2.38;;;;;;;11.76;75.34;97177.88;2009269;29;20049;-40
2022/07/08 04:35:47;;;;;;;9.35;2.17;;;;;;;11.84;74.91;97172.38;2008877;29;20057;-40
2022/07/08 04:36:48;;;;;;;10.38;2.45;;;;;;;11.91;74.39;97179.97;2009925;29;20482;-41
2022/07/08 04:37:50;;;;;;;9.82;2.22;;;;;;;11.93;74.06;97185.13;2015676;29;20452;-39
2022/07/08 04:38:51;;;;;;;6.85;2.40;;;;;;;11.91;74.69;97181.72;2009960;29;20065;-40
2022/07/08 04:39:53;;;;;;;7.15;2.35;;;;;;;11.73;74.37;97177.94;2002240;29;20061;-40
2022/07/08 04:40:54;;;;;;;7.90;2.10;;;;;;;11.84;74.32;97178.47;2002258;29;20053;-40
2022/07/08 04:41:56;;;;;;;7.72;1.80;;;;;;;11.83;74.74;97178.50;2016553;29;20561;-42
2022/07/08 04:42:57;;;;;;;8.90;2.20;;;;;;;11.83;74.07;97175.91;2017080;29;20045;-39
2022/07/08 04:43:58;;;;;;;10.30;2.03;;;;;;;11.87;73.35;97178.41;2009486;29;20060;-39
2022/07/08 04:45:00;;;;;;;7.03;1.95;;;;;;;11.80;73.43;97186.41;2001378;29;20050;-39
2022/07/08 04:46:01;;;;;;;7.68;1.80;;;;;;;11.85;72.38;97171.50;2010078;29;20060;-40
2022/07/08 04:47:03;;;;;;;5.60;2.03;;;;;;;11.89;73.22;97175.72;2017296;29;20049;-40
2022/07/08 04:48:04;;;;;;;5.32;1.52;;;;;;;11.87;72.81;97173.19;2001192;29;20050;-40
2022/07/08 04:49:05;;;;;;;12.02;2.38;;;;;;;11.86;73.82;97178.44;2002044;29;20053;-41
2022/07/08 04:50:07;;;;;;;6.30;1.70;;;;;;;11.83;72.82;97176.75;2016920;29;20045;-40
2022/07/08 04:51:08;;;;;;;5.65;1.85;;;;;;;11.93;72.04;97177.34;2009103;29;20060;-40
2022/07/08 04:52:09;;;;;;;8.10;1.80;;;;;;;11.96;72.18;97177.22;2001395;29;20443;-40
2022/07/08 04:53:10;;;;;;;9.15;2.17;;;;;;;11.91;71.94;97179.97;2008393;29;20049;-40